Time;durP1;ratioP1;P1;durP2;ratioP2;P2;SDS_P1;SDS_P2;PMS_P1;PMS_P2;Temp;Humidity;BMP_temperature;BMP_pressure;BME280_temperature;BME280_humidity;BME280_pressure;Samples;Min_cycle;Max_cycle;Signal;HPM_P1;HPM_P2
2023/03/11 00:00:54;;;;;;;0.93;0.57;;;;;;;;;;4994666;28;20190;-77
2023/03/11 00:03:22;;;;;;;4.63;0.87;;;;;;;;;;4988885;28;20227;-77
2023/03/11 00:05:47;;;;;;;4.50;0.80;;;;;;;;;;4983574;28;20183;-77
2023/03/11 00:08:14;;;;;;;1.83;0.57;;;;;;;;;;4988408;28;20172;-77
2023/03/11 00:10:41;;;;;;;5.50;2.73;;;;;;;;;;4991755;28;20172;-77
2023/03/11 00:13:07;;;;;;;2.10;1.17;;;;;;;;;;4989128;28;20214;-77
2023/03/11 00:15:32;;;;;;;4.20;0.83;;;;;;;;;;4995617;28;20179;-77
2023/03/11 00:17:58;;;;;;;2.70;0.60;;;;;;;;;;4993322;28;20263;-77
2023/03/11 00:20:25;;;;;;;8.03;1.10;;;;;;;;;;4993949;28;20671;-77
2023/03/11 00:22:50;;;;;;;4.47;1.40;;;;;;;;;;4992862;28;20244;-77
2023/03/11 00:25:16;;;;;;;5.60;0.70;;;;;;;;;;4992916;28;20172;-76
2023/03/11 00:27:41;;;;;;;2.83;0.67;;;;;;;;;;4993756;28;20180;-77
2023/03/11 00:30:07;;;;;;;4.57;0.70;;;;;;;;;;4994432;28;20681;-77
2023/03/11 00:32:32;;;;;;;2.83;0.73;;;;;;;;;;4993026;28;20203;-76
2023/03/11 00:34:58;;;;;;;3.67;0.83;;;;;;;;;;4994386;28;20187;-76
2023/03/11 00:37:23;;;;;;;6.97;1.00;;;;;;;;;;4994742;28;20195;-77
2023/03/11 00:39:48;;;;;;;4.07;0.87;;;;;;;;;;4987539;28;20179;-77
2023/03/11 00:42:13;;;;;;;2.97;0.70;;;;;;;;;;4988443;28;20492;-77
2023/03/11 00:44:38;;;;;;;6.13;0.73;;;;;;;;;;4983243;28;20691;-77
2023/03/11 00:47:04;;;;;;;2.27;0.80;;;;;;;;;;4995148;28;20623;-77
2023/03/11 00:49:29;;;;;;;6.40;0.70;;;;;;;;;;4993554;28;20180;-76
2023/03/11 00:51:54;;;;;;;1.43;0.57;;;;;;;;;;4992910;28;20508;-76
2023/03/11 00:54:19;;;;;;;2.23;0.67;;;;;;;;;;4993765;28;20207;-76
2023/03/11 00:56:44;;;;;;;6.47;1.07;;;;;;;;;;4995425;28;20179;-76
2023/03/11 00:59:10;;;;;;;1.07;0.80;;;;;;;;;;4988192;28;20176;-76
2023/03/11 01:01:35;;;;;;;4.87;1.20;;;;;;;;;;4994557;28;20171;-76
2023/03/11 01:04:00;;;;;;;3.67;0.80;;;;;;;;;;4992429;28;20755;-76
2023/03/11 01:06:25;;;;;;;1.40;0.80;;;;;;;;;;4994543;28;20250;-76
2023/03/11 01:08:50;;;;;;;2.87;0.90;;;;;;;;;;4994132;28;20605;-76
2023/03/11 01:11:16;;;;;;;4.90;1.17;;;;;;;;;;4994302;28;20546;-76
2023/03/11 01:13:41;;;;;;;1.37;0.50;;;;;;;;;;4987698;28;24762;-76
2023/03/11 01:16:07;;;;;;;1.83;0.70;;;;;;;;;;4985466;28;20179;-76
2023/03/11 01:18:33;;;;;;;2.90;0.80;;;;;;;;;;4992570;28;20187;-76
2023/03/11 01:20:58;;;;;;;2.93;0.80;;;;;;;;;;4992674;28;20565;-76
2023/03/11 01:23:23;;;;;;;1.43;0.70;;;;;;;;;;4991214;28;20296;-76
2023/03/11 01:25:49;;;;;;;3.87;1.00;;;;;;;;;;4992046;28;20549;-76
2023/03/11 01:28:14;;;;;;;3.80;0.60;;;;;;;;;;4992855;28;20616;-76
2023/03/11 01:30:40;;;;;;;4.23;1.30;;;;;;;;;;4993515;28;20187;-77
2023/03/11 01:33:06;;;;;;;1.80;1.00;;;;;;;;;;4992487;28;20222;-76
2023/03/11 01:35:32;;;;;;;4.07;0.70;;;;;;;;;;4993194;28;20267;-76
2023/03/11 01:37:57;;;;;;;2.70;0.90;;;;;;;;;;4992950;28;20210;-76
2023/03/11 01:40:34;;;;;;;7.00;1.10;;;;;;;;;;4993028;28;20226;-76
2023/03/11 01:42:59;;;;;;;7.73;1.30;;;;;;;;;;4990641;28;20410;-76
2023/03/11 01:45:28;;;;;;;2.93;0.93;;;;;;;;;;4991753;28;20183;-76
2023/03/11 01:47:53;;;;;;;1.97;0.57;;;;;;;;;;4975793;28;20176;-76
2023/03/11 01:50:18;;;;;;;1.53;0.73;;;;;;;;;;4993196;28;20183;-76
2023/03/11 01:52:44;;;;;;;3.07;0.70;;;;;;;;;;4993404;28;20195;-76
2023/03/11 01:55:10;;;;;;;4.47;0.80;;;;;;;;;;4993472;28;20195;-76
2023/03/11 01:57:37;;;;;;;1.40;0.80;;;;;;;;;;4992459;28;20171;-76
2023/03/11 02:00:06;;;;;;;4.90;1.20;;;;;;;;;;4990658;28;20179;-76
2023/03/11 02:02:34;;;;;;;1.47;0.67;;;;;;;;;;4993007;28;20224;-76
2023/03/11 02:05:01;;;;;;;2.83;0.80;;;;;;;;;;4992515;28;20255;-76
2023/03/11 02:07:26;;;;;;;1.90;0.90;;;;;;;;;;4991949;28;20246;-76
2023/03/11 02:09:51;;;;;;;1.23;0.70;;;;;;;;;;4988733;28;20582;-76
2023/03/11 02:12:17;;;;;;;2.70;1.20;;;;;;;;;;4990481;28;20176;-76
2023/03/11 02:14:43;;;;;;;1.77;0.97;;;;;;;;;;4987980;28;20187;-76
2023/03/11 02:17:09;;;;;;;5.97;0.90;;;;;;;;;;4990651;28;20190;-76
2023/03/11 02:19:34;;;;;;;2.17;0.90;;;;;;;;;;4993254;28;20180;-76
2023/03/11 02:21:59;;;;;;;5.17;1.00;;;;;;;;;;4994434;28;20661;-76
2023/03/11 02:24:43;;;;;;;3.33;1.50;;;;;;;;;;4989822;28;20192;-76
2023/03/11 02:27:10;;;;;;;2.37;0.90;;;;;;;;;;4992875;28;20179;-76
2023/03/11 02:29:36;;;;;;;4.43;1.20;;;;;;;;;;4991731;28;20179;-76
2023/03/11 02:32:03;;;;;;;5.43;1.30;;;;;;;;;;4997326;28;20177;-76
2023/03/11 02:34:32;;;;;;;2.07;1.00;;;;;;;;;;4995028;28;20211;-76
2023/03/11 02:36:58;;;;;;;1.93;0.97;;;;;;;;;;4997292;28;20367;-76
2023/03/11 02:39:29;;;;;;;5.07;1.13;;;;;;;;;;4994409;28;20692;-76
2023/03/11 02:41:55;;;;;;;2.63;0.67;;;;;;;;;;4994368;28;20253;-76
2023/03/11 02:44:20;;;;;;;2.63;1.20;;;;;;;;;;4995036;28;20270;-76
2023/03/11 02:46:45;;;;;;;6.43;1.13;;;;;;;;;;4996424;28;20172;-76
2023/03/11 02:49:11;;;;;;;6.00;1.47;;;;;;;;;;4994915;28;20188;-76
2023/03/11 02:51:36;;;;;;;3.27;1.43;;;;;;;;;;4994353;28;20266;-76
2023/03/11 02:54:02;;;;;;;1.53;1.10;;;;;;;;;;4995351;28;20207;-76
2023/03/11 02:56:28;;;;;;;2.87;0.93;;;;;;;;;;4996594;28;20184;-76
2023/03/11 02:58:53;;;;;;;7.47;1.40;;;;;;;;;;4995389;28;20179;-76
2023/03/11 03:01:18;;;;;;;2.93;1.60;;;;;;;;;;4995311;28;20172;-76
2023/03/11 03:03:43;;;;;;;1.97;1.00;;;;;;;;;;4995258;28;20246;-76
2023/03/11 03:06:09;;;;;;;1.63;0.90;;;;;;;;;;4996462;28;20541;-76
2023/03/11 03:08:34;;;;;;;2.20;1.07;;;;;;;;;;4995257;28;20254;-76
2023/03/11 03:11:00;;;;;;;4.83;1.23;;;;;;;;;;4996423;28;20241;-76
2023/03/11 03:13:26;;;;;;;3.17;1.20;;;;;;;;;;4996188;28;20206;-76
2023/03/11 03:15:51;;;;;;;1.70;1.00;;;;;;;;;;4990979;28;20678;-76
2023/03/11 03:18:16;;;;;;;4.97;1.57;;;;;;;;;;4992393;28;20326;-76
2023/03/11 03:20:42;;;;;;;4.37;1.23;;;;;;;;;;4996115;28;20657;-76
2023/03/11 03:23:07;;;;;;;3.47;1.53;;;;;;;;;;4995824;28;20207;-76
2023/03/11 03:25:32;;;;;;;9.27;1.20;;;;;;;;;;4995378;28;20641;-76
2023/03/11 03:27:58;;;;;;;4.10;1.17;;;;;;;;;;4995760;28;20188;-76
2023/03/11 03:30:23;;;;;;;2.27;1.23;;;;;;;;;;4995851;28;20195;-76
2023/03/11 03:32:48;;;;;;;2.90;1.10;;;;;;;;;;5003585;28;20250;-76
2023/03/11 03:35:13;;;;;;;5.33;1.13;;;;;;;;;;4994717;28;20229;-76
2023/03/11 03:37:38;;;;;;;1.50;0.87;;;;;;;;;;4987615;28;20192;-76
2023/03/11 03:40:06;;;;;;;1.47;0.90;;;;;;;;;;4990596;28;20180;-76
2023/03/11 03:42:32;;;;;;;3.80;1.03;;;;;;;;;;4994896;28;20211;-76
2023/03/11 03:44:57;;;;;;;3.50;1.00;;;;;;;;;;5000263;28;20190;-76
2023/03/11 03:47:22;;;;;;;1.53;1.03;;;;;;;;;;4996668;28;20176;-76
2023/03/11 03:49:48;;;;;;;2.33;1.30;;;;;;;;;;4991487;28;20184;-76
2023/03/11 03:52:14;;;;;;;4.50;1.10;;;;;;;;;;4991822;28;20302;-76
2023/03/11 03:54:39;;;;;;;4.60;1.20;;;;;;;;;;4994392;28;20573;-76
2023/03/11 03:57:04;;;;;;;2.10;0.93;;;;;;;;;;4995056;28;20176;-76
2023/03/11 03:59:29;;;;;;;4.03;0.93;;;;;;;;;;4995064;28;20180;-76
2023/03/11 04:01:55;;;;;;;3.10;1.73;;;;;;;;;;4993264;28;20214;-76
2023/03/11 04:04:20;;;;;;;3.00;0.77;;;;;;;;;;4989672;28;20689;-76
2023/03/11 04:06:45;;;;;;;3.20;0.97;;;;;;;;;;4980610;28;20179;-76
2023/03/11 04:09:10;;;;;;;3.17;0.90;;;;;;;;;;4991086;28;20187;-76
2023/03/11 04:11:36;;;;;;;5.80;1.17;;;;;;;;;;4995192;28;20270;-76
2023/03/11 04:14:02;;;;;;;3.77;1.00;;;;;;;;;;4993191;28;20202;-76
2023/03/11 04:16:27;;;;;;;3.53;1.10;;;;;;;;;;4993558;28;20234;-76
2023/03/11 04:18:52;;;;;;;6.53;1.40;;;;;;;;;;4993239;28;20299;-76
2023/03/11 04:21:18;;;;;;;1.10;0.60;;;;;;;;;;4994388;28;20215;-76
2023/03/11 04:23:43;;;;;;;2.57;0.80;;;;;;;;;;4993165;28;20322;-76
2023/03/11 04:26:08;;;;;;;5.00;1.23;;;;;;;;;;4993914;28;20271;-76
2023/03/11 04:28:33;;;;;;;6.07;1.40;;;;;;;;;;4993430;28;20461;-76
2023/03/11 04:30:59;;;;;;;3.97;1.10;;;;;;;;;;4991356;28;20564;-76
2023/03/11 04:33:24;;;;;;;4.37;1.10;;;;;;;;;;4990587;28;20207;-76
2023/03/11 04:35:49;;;;;;;1.57;0.57;;;;;;;;;;4992876;28;20176;-76
2023/03/11 04:38:14;;;;;;;1.23;0.77;;;;;;;;;;4993650;28;20203;-76
2023/03/11 04:40:39;;;;;;;4.63;0.70;;;;;;;;;;4992916;28;20188;-76
2023/03/11 04:43:05;;;;;;;2.63;1.00;;;;;;;;;;4993923;28;20204;-76
2023/03/11 04:45:30;;;;;;;2.40;1.10;;;;;;;;;;4993610;28;20176;-76
2023/03/11 04:47:55;;;;;;;2.50;0.80;;;;;;;;;;4997918;28;20622;-76
2023/03/11 04:50:20;;;;;;;3.93;1.10;;;;;;;;;;4992607;28;20187;-76
2023/03/11 04:52:46;;;;;;;1.03;0.70;;;;;;;;;;5003359;22;20187;-71
2023/03/11 04:55:12;;;;;;;2.17;0.97;;;;;;;;;;4991982;28;20189;-71
2023/03/11 04:57:38;;;;;;;4.57;1.20;;;;;;;;;;4991883;28;20212;-69
2023/03/11 05:00:07;;;;;;;3.37;1.00;;;;;;;;;;4989915;28;20679;-69
2023/03/11 05:02:32;;;;;;;1.87;0.90;;;;;;;;;;5002075;28;21009;-69
2023/03/11 05:04:57;;;;;;;2.37;1.00;;;;;;;;;;4981255;28;20188;-69
2023/03/11 05:07:23;;;;;;;3.17;1.37;;;;;;;;;;4984192;28;20218;-69
2023/03/11 05:09:48;;;;;;;5.37;1.43;;;;;;;;;;4980979;28;20653;-69
2023/03/11 05:12:13;;;;;;;2.97;1.70;;;;;;;;;;4983485;28;20227;-69
2023/03/11 05:14:39;;;;;;;5.57;1.60;;;;;;;;;;4986184;28;20211;-69
2023/03/11 05:17:04;;;;;;;1.10;0.80;;;;;;;;;;4985056;28;20171;-69
2023/03/11 05:19:30;;;;;;;1.87;1.20;;;;;;;;;;4985624;28;20194;-70
2023/03/11 05:21:55;;;;;;;3.53;1.00;;;;;;;;;;4990428;28;20203;-69
2023/03/11 05:24:20;;;;;;;1.30;0.87;;;;;;;;;;4989746;28;20195;-69
2023/03/11 05:26:45;;;;;;;1.87;0.87;;;;;;;;;;4980354;28;20231;-69
2023/03/11 05:29:11;;;;;;;4.50;1.40;;;;;;;;;;4987287;28;20234;-69
2023/03/11 05:31:36;;;;;;;2.60;1.20;;;;;;;;;;4983936;28;20208;-69
2023/03/11 05:34:01;;;;;;;7.57;2.20;;;;;;;;;;4975514;28;20779;-69
2023/03/11 05:36:26;;;;;;;5.63;1.50;;;;;;;;;;4985008;28;20198;-69
2023/03/11 05:38:52;;;;;;;4.40;1.57;;;;;;;;;;4992119;28;20584;-70
2023/03/11 05:41:17;;;;;;;5.43;1.50;;;;;;;;;;4992161;28;20656;-69
2023/03/11 05:43:43;;;;;;;4.00;1.50;;;;;;;;;;4990693;28;20203;-69
2023/03/11 05:46:09;;;;;;;2.00;1.00;;;;;;;;;;4993955;28;20578;-70
2023/03/11 05:48:35;;;;;;;7.27;1.93;;;;;;;;;;4990438;28;20650;-69
2023/03/11 05:51:00;;;;;;;3.50;1.90;;;;;;;;;;4989904;28;20175;-70
2023/03/11 05:53:25;;;;;;;3.60;1.33;;;;;;;;;;4999811;28;20824;-69
2023/03/11 05:55:57;;;;;;;7.17;1.67;;;;;;;;;;4996743;28;20207;-69
2023/03/11 05:58:23;;;;;;;2.10;1.20;;;;;;;;;;4990266;28;20226;-69
2023/03/11 06:00:48;;;;;;;2.33;1.10;;;;;;;;;;4992642;28;20554;-70
2023/03/11 06:03:13;;;;;;;3.20;1.60;;;;;;;;;;4991205;28;20218;-69
2023/03/11 06:05:48;;;;;;;4.07;1.20;;;;;;;;;;4991889;28;20167;-70
2023/03/11 06:08:13;;;;;;;3.00;1.47;;;;;;;;;;4991532;28;20589;-70
2023/03/11 06:10:38;;;;;;;2.93;1.30;;;;;;;;;;4991969;28;20172;-69
2023/03/11 06:13:04;;;;;;;4.07;2.70;;;;;;;;;;4991567;28;20222;-70
2023/03/11 06:15:29;;;;;;;2.80;1.27;;;;;;;;;;4980682;28;20185;-69
2023/03/11 06:17:55;;;;;;;7.20;1.80;;;;;;;;;;4987097;28;20180;-69
2023/03/11 06:20:20;;;;;;;4.47;2.30;;;;;;;;;;4984404;28;20183;-71
2023/03/11 06:22:48;;;;;;;7.87;2.80;;;;;;;;;;4983272;28;20202;-71
2023/03/11 06:25:14;;;;;;;4.03;2.37;;;;;;;;;;4981487;28;20785;-70
2023/03/11 06:27:39;;;;;;;4.87;2.20;;;;;;;;;;4978045;28;20200;-71
2023/03/11 06:30:04;;;;;;;4.47;2.10;;;;;;;;;;4986322;28;20176;-70
2023/03/11 06:32:30;;;;;;;7.17;2.17;;;;;;;;;;4975036;28;20207;-70
2023/03/11 06:34:55;;;;;;;4.03;1.87;;;;;;;;;;4977720;28;20204;-70
2023/03/11 06:37:22;;;;;;;5.10;1.90;;;;;;;;;;4983045;28;20183;-70
2023/03/11 06:39:50;;;;;;;3.97;1.80;;;;;;;;;;4984785;28;20182;-70
2023/03/11 06:42:15;;;;;;;3.63;1.70;;;;;;;;;;4978802;28;20242;-70
2023/03/11 06:44:40;;;;;;;5.40;1.90;;;;;;;;;;4985148;28;20660;-70
2023/03/11 06:47:06;;;;;;;4.60;1.50;;;;;;;;;;4987424;28;20179;-70
2023/03/11 06:49:31;;;;;;;2.50;1.73;;;;;;;;;;4974931;28;20187;-70
2023/03/11 06:51:56;;;;;;;5.50;2.53;;;;;;;;;;4983098;28;20179;-70
2023/03/11 06:54:21;;;;;;;4.33;1.67;;;;;;;;;;4982198;28;20212;-70
2023/03/11 06:56:47;;;;;;;5.07;2.77;;;;;;;;;;4982524;28;20177;-69
2023/03/11 06:59:13;;;;;;;3.73;1.47;;;;;;;;;;4982730;28;20190;-70
2023/03/11 07:01:38;;;;;;;2.33;1.53;;;;;;;;;;4975521;28;20654;-70
2023/03/11 07:04:04;;;;;;;2.73;1.53;;;;;;;;;;4978449;28;20207;-69
2023/03/11 07:06:29;;;;;;;3.70;1.77;;;;;;;;;;4978643;28;20185;-70
2023/03/11 07:08:54;;;;;;;7.83;1.80;;;;;;;;;;4984076;28;20172;-70
2023/03/11 07:11:23;;;;;;;6.63;1.73;;;;;;;;;;4984560;28;20680;-70
2023/03/11 07:13:49;;;;;;;2.03;1.60;;;;;;;;;;4983932;28;20200;-70
2023/03/11 07:16:16;;;;;;;3.83;1.90;;;;;;;;;;4987349;28;20559;-69
2023/03/11 07:18:43;;;;;;;4.40;1.97;;;;;;;;;;4986449;28;20234;-69
2023/03/11 07:21:08;;;;;;;5.53;3.10;;;;;;;;;;4993363;28;20180;-70
2023/03/11 07:23:34;;;;;;;6.20;2.37;;;;;;;;;;4991901;28;20712;-70
2023/03/11 07:25:59;;;;;;;4.70;2.80;;;;;;;;;;4990776;28;20176;-70
2023/03/11 07:28:25;;;;;;;4.90;2.27;;;;;;;;;;4984818;28;20191;-70
2023/03/11 07:30:51;;;;;;;3.17;1.63;;;;;;;;;;4987663;28;20172;-70
2023/03/11 07:33:16;;;;;;;3.30;1.70;;;;;;;;;;4983308;28;20434;-70
2023/03/11 07:35:42;;;;;;;2.60;1.83;;;;;;;;;;4983230;28;20539;-70
2023/03/11 07:38:07;;;;;;;4.17;2.10;;;;;;;;;;4984919;28;20267;-70
2023/03/11 07:40:33;;;;;;;4.40;1.30;;;;;;;;;;4992150;28;20176;-70
2023/03/11 07:42:58;;;;;;;7.10;3.40;;;;;;;;;;4989906;28;20203;-70
2023/03/11 07:45:23;;;;;;;6.10;1.53;;;;;;;;;;4989359;28;20180;-70
2023/03/11 07:47:48;;;;;;;6.33;1.80;;;;;;;;;;4992829;28;20183;-70
2023/03/11 07:50:13;;;;;;;2.70;1.20;;;;;;;;;;4985751;28;20176;-70
2023/03/11 07:52:39;;;;;;;1.90;1.50;;;;;;;;;;4988391;28;20184;-70
2023/03/11 07:55:04;;;;;;;3.87;1.50;;;;;;;;;;4989603;28;20251;-70
2023/03/11 07:57:29;;;;;;;4.30;1.73;;;;;;;;;;4991974;28;20211;-70
2023/03/11 07:59:54;;;;;;;3.53;2.20;;;;;;;;;;4994158;28;20526;-70
2023/03/11 08:02:20;;;;;;;3.87;2.27;;;;;;;;;;4982894;28;20243;-70
2023/03/11 08:04:45;;;;;;;3.10;1.60;;;;;;;;;;4986870;28;20229;-70
2023/03/11 08:07:10;;;;;;;4.53;1.60;;;;;;;;;;4992354;28;20596;-70
2023/03/11 08:09:35;;;;;;;1.73;1.40;;;;;;;;;;4993570;28;20175;-70
2023/03/11 08:12:00;;;;;;;6.73;2.20;;;;;;;;;;4992565;28;20183;-69
2023/03/11 08:14:26;;;;;;;5.37;2.10;;;;;;;;;;4990465;28;20237;-70
2023/03/11 08:16:51;;;;;;;3.23;1.57;;;;;;;;;;4989130;28;20223;-69
2023/03/11 08:19:16;;;;;;;3.57;1.57;;;;;;;;;;4984831;28;20550;-70
2023/03/11 08:21:41;;;;;;;5.73;2.43;;;;;;;;;;4991592;28;20741;-70
2023/03/11 08:24:09;;;;;;;2.17;1.30;;;;;;;;;;4983445;28;20200;-69
2023/03/11 08:26:34;;;;;;;3.10;1.33;;;;;;;;;;4986751;28;20184;-71
2023/03/11 08:29:00;;;;;;;3.53;1.50;;;;;;;;;;4985268;28;20266;-69
2023/03/11 08:31:26;;;;;;;6.77;1.33;;;;;;;;;;4985156;28;20598;-69
2023/03/11 08:33:54;;;;;;;3.00;1.07;;;;;;;;;;4984138;28;20204;-69
2023/03/11 08:36:19;;;;;;;3.40;1.30;;;;;;;;;;4990091;28;20171;-69
2023/03/11 08:38:44;;;;;;;3.57;1.50;;;;;;;;;;4993381;28;20191;-69
2023/03/11 08:41:10;;;;;;;3.27;1.10;;;;;;;;;;4991115;28;20183;-69
2023/03/11 08:43:35;;;;;;;3.60;1.73;;;;;;;;;;4984010;28;20208;-69
2023/03/11 08:46:01;;;;;;;3.70;1.77;;;;;;;;;;4976799;28;20178;-69
2023/03/11 08:48:26;;;;;;;3.63;2.00;;;;;;;;;;4992611;28;20180;-69
2023/03/11 08:50:52;;;;;;;4.57;1.70;;;;;;;;;;4991026;28;20271;-69
2023/03/11 08:53:17;;;;;;;4.07;2.13;;;;;;;;;;4990316;28;20254;-68
2023/03/11 08:55:42;;;;;;;6.30;2.17;;;;;;;;;;4992924;28;20226;-69
2023/03/11 08:58:07;;;;;;;3.60;2.43;;;;;;;;;;4993643;28;20167;-69
2023/03/11 09:00:33;;;;;;;3.73;1.77;;;;;;;;;;4991703;28;20222;-69
2023/03/11 09:02:58;;;;;;;5.27;1.83;;;;;;;;;;4992650;28;20203;-69
2023/03/11 09:05:23;;;;;;;3.27;1.50;;;;;;;;;;4992285;28;20176;-68
2023/03/11 09:07:48;;;;;;;2.50;1.43;;;;;;;;;;4993206;28;20226;-70
2023/03/11 09:10:14;;;;;;;6.37;1.93;;;;;;;;;;4992298;28;20186;-69
2023/03/11 09:12:40;;;;;;;3.73;1.20;;;;;;;;;;4992689;28;20178;-69
2023/03/11 09:15:05;;;;;;;4.33;1.53;;;;;;;;;;4990906;28;20168;-69
2023/03/11 09:17:31;;;;;;;3.60;1.17;;;;;;;;;;4990108;28;20176;-69
2023/03/11 09:19:56;;;;;;;3.30;1.07;;;;;;;;;;4992476;28;20172;-69
2023/03/11 09:22:21;;;;;;;2.13;0.80;;;;;;;;;;4992072;28;20230;-69
2023/03/11 09:24:46;;;;;;;2.23;1.37;;;;;;;;;;4992172;28;20696;-68
2023/03/11 09:27:14;;;;;;;3.70;1.40;;;;;;;;;;4991613;28;20203;-69
2023/03/11 09:29:39;;;;;;;2.77;1.10;;;;;;;;;;4984541;28;20172;-69
2023/03/11 09:32:05;;;;;;;1.50;0.77;;;;;;;;;;4991750;28;20179;-69
2023/03/11 09:34:30;;;;;;;1.40;0.80;;;;;;;;;;4986077;28;20214;-69
2023/03/11 09:36:55;;;;;;;2.90;0.80;;;;;;;;;;4984474;28;20188;-69
2023/03/11 09:39:20;;;;;;;3.73;1.27;;;;;;;;;;4985644;28;20175;-69
2023/03/11 09:41:52;;;;;;;1.40;0.70;;;;;;;;;;4984138;28;20572;-69
2023/03/11 09:44:20;;;;;;;4.30;0.70;;;;;;;;;;4980870;28;20210;-69
2023/03/11 09:47:15;;;;;;;4.37;0.80;;;;;;;;;;4984704;28;20182;-69
2023/03/11 09:49:58;;;;;;;2.27;0.70;;;;;;;;;;4984637;28;20262;-69
2023/03/11 09:52:28;;;;;;;1.53;0.73;;;;;;;;;;4987648;28;20187;-68
2023/03/11 09:54:54;;;;;;;3.57;0.83;;;;;;;;;;4990451;28;20286;-69
2023/03/11 09:57:30;;;;;;;4.50;0.70;;;;;;;;;;4984997;28;20623;-69
2023/03/11 09:59:56;;;;;;;1.33;0.90;;;;;;;;;;4984130;28;20191;-69
2023/03/11 10:02:25;;;;;;;0.97;0.50;;;;;;;;;;4989417;28;20208;-69
2023/03/11 10:04:55;;;;;;;3.77;1.07;;;;;;;;;;4991912;28;20688;-68
2023/03/11 10:07:24;;;;;;;1.47;0.83;;;;;;;;;;4991918;28;20262;-68
2023/03/11 10:09:56;;;;;;;3.03;0.80;;;;;;;;;;4991763;28;20195;-68
2023/03/11 10:12:31;;;;;;;3.33;1.10;;;;;;;;;;4990226;28;20230;-68
2023/03/11 10:15:03;;;;;;;1.97;0.90;;;;;;;;;;4991443;28;20240;-69
2023/03/11 10:17:47;;;;;;;2.73;1.27;;;;;;;;;;4980588;28;20206;-69
2023/03/11 10:20:12;;;;;;;3.20;0.73;;;;;;;;;;4990765;28;20236;-69
2023/03/11 10:22:38;;;;;;;6.97;0.80;;;;;;;;;;4989327;28;20199;-69
2023/03/11 10:25:10;;;;;;;4.17;0.77;;;;;;;;;;4985992;28;20191;-68
2023/03/11 10:27:44;;;;;;;3.10;0.80;;;;;;;;;;4991807;28;20218;-69
2023/03/11 10:30:18;;;;;;;1.60;0.70;;;;;;;;;;4991338;28;20164;-69
2023/03/11 10:32:47;;;;;;;2.50;0.80;;;;;;;;;;4989038;28;20266;-68
2023/03/11 10:35:17;;;;;;;5.10;1.10;;;;;;;;;;4990121;28;20489;-69
2023/03/11 10:37:49;;;;;;;4.37;0.53;;;;;;;;;;4990416;28;20653;-69
2023/03/11 10:40:17;;;;;;;2.47;0.87;;;;;;;;;;4992691;28;20184;-69
2023/03/11 10:42:44;;;;;;;2.10;1.17;;;;;;;;;;4997831;28;20203;-69
2023/03/11 10:45:11;;;;;;;2.73;0.80;;;;;;;;;;4990950;28;20626;-69
2023/03/11 10:47:36;;;;;;;3.07;0.83;;;;;;;;;;5004303;28;20178;-69
2023/03/11 10:50:02;;;;;;;2.30;0.70;;;;;;;;;;4984408;28;20183;-69
2023/03/11 10:52:27;;;;;;;3.30;1.00;;;;;;;;;;4984574;28;20243;-69
2023/03/11 10:54:59;;;;;;;4.33;1.00;;;;;;;;;;5004964;22;20235;-77
2023/03/11 10:57:26;;;;;;;2.73;0.80;;;;;;;;;;4996664;28;20202;-76
2023/03/11 10:59:53;;;;;;;2.63;0.83;;;;;;;;;;4992443;28;20941;-76
2023/03/11 11:02:41;;;;;;;3.00;0.90;;;;;;;;;;5008324;28;20222;-76
2023/03/11 11:05:22;;;;;;;5.47;0.90;;;;;;;;;;4985041;28;20207;-76
2023/03/11 11:08:00;;;;;;;3.00;0.60;;;;;;;;;;4996165;28;20530;-76
2023/03/11 11:10:26;;;;;;;5.33;0.70;;;;;;;;;;4996638;28;20175;-76
2023/03/11 11:12:54;;;;;;;4.33;1.37;;;;;;;;;;4994831;28;20190;-76
2023/03/11 11:15:31;;;;;;;2.73;0.83;;;;;;;;;;4990856;28;20271;-76
2023/03/11 11:17:58;;;;;;;2.97;0.70;;;;;;;;;;4982440;28;20184;-76
2023/03/11 11:20:25;;;;;;;2.33;1.00;;;;;;;;;;4992974;28;20184;-76
2023/03/11 11:22:52;;;;;;;2.43;1.37;;;;;;;;;;4991866;28;20242;-76
2023/03/11 11:25:26;;;;;;;4.63;0.80;;;;;;;;;;4993238;28;20211;-76
2023/03/11 11:27:53;;;;;;;4.07;0.90;;;;;;;;;;4986331;28;20207;-75
2023/03/11 11:30:18;;;;;;;2.83;0.70;;;;;;;;;;4996206;28;20180;-75
2023/03/11 11:32:43;;;;;;;2.57;1.20;;;;;;;;;;4996507;28;20191;-76
2023/03/11 11:35:13;;;;;;;2.27;0.70;;;;;;;;;;4989936;28;21429;-76
2023/03/11 11:37:42;;;;;;;7.30;1.30;;;;;;;;;;4989471;28;20184;-76
2023/03/11 11:40:14;;;;;;;6.83;0.80;;;;;;;;;;4992302;28;20192;-75
2023/03/11 11:43:00;;;;;;;3.30;0.57;;;;;;;;;;4988007;28;20187;-75
2023/03/11 11:45:43;;;;;;;5.07;0.90;;;;;;;;;;4979576;28;20196;-75
2023/03/11 11:48:25;;;;;;;3.80;1.00;;;;;;;;;;4986953;28;20218;-76
2023/03/11 11:50:51;;;;;;;4.77;0.90;;;;;;;;;;4979293;28;20263;-75
2023/03/11 11:53:35;;;;;;;2.90;1.33;;;;;;;;;;4987358;28;20274;-75
2023/03/11 11:56:00;;;;;;;4.22;1.05;;;;;;;;;;4992993;28;20184;-75
2023/03/11 11:58:26;;;;;;;1.63;0.55;;;;;;;;;;4988496;28;20198;-76
2023/03/11 12:01:26;;;;;;;2.70;1.33;;;;;;;;;;4990923;28;20646;-75
2023/03/11 12:04:03;;;;;;;1.33;0.63;;;;;;;;;;4971361;28;20223;-76
2023/03/11 12:06:44;;;;;;;2.63;0.75;;;;;;;;;;4983214;28;20203;-75
2023/03/11 12:09:30;;;;;;;0.70;0.57;;;;;;;;;;4989078;28;20218;-75
2023/03/11 12:12:15;;;;;;;1.77;0.83;;;;;;;;;;4985311;28;20190;-75
2023/03/11 12:14:58;;;;;;;1.90;0.90;;;;;;;;;;4982543;28;20278;-76
2023/03/11 12:17:24;;;;;;;1.88;0.90;;;;;;;;;;4992744;28;20210;-76
2023/03/11 12:19:52;;;;;;;3.50;0.90;;;;;;;;;;4978400;28;20208;-75
2023/03/11 12:22:34;;;;;;;4.97;1.63;;;;;;;;;;4984135;28;20212;-75
2023/03/11 12:24:59;;;;;;;2.25;0.77;;;;;;;;;;4983351;28;20200;-75
2023/03/11 12:27:27;;;;;;;3.70;0.93;;;;;;;;;;4985360;28;20187;-76
2023/03/11 12:29:54;;;;;;;2.38;0.68;;;;;;;;;;4987619;28;20176;-75
2023/03/11 12:32:32;;;;;;;1.63;0.60;;;;;;;;;;4989807;28;20194;-76
2023/03/11 12:35:03;;;;;;;2.35;0.70;;;;;;;;;;5006415;28;20739;-76
2023/03/11 12:37:29;;;;;;;3.55;0.90;;;;;;;;;;5006139;28;20547;-76
2023/03/11 12:39:54;;;;;;;3.90;0.80;;;;;;;;;;4985909;28;20172;-75
2023/03/11 12:42:20;;;;;;;3.90;0.82;;;;;;;;;;4986949;28;20200;-75
2023/03/11 12:44:46;;;;;;;1.38;0.70;;;;;;;;;;4982000;28;20191;-75
2023/03/11 12:47:19;;;;;;;4.40;0.82;;;;;;;;;;4990719;28;20723;-76
2023/03/11 12:49:50;;;;;;;1.33;0.70;;;;;;;;;;4982141;28;20190;-76
2023/03/11 12:52:17;;;;;;;1.45;0.82;;;;;;;;;;4987647;28;20234;-76
2023/03/11 12:54:46;;;;;;;3.47;0.60;;;;;;;;;;4984490;28;20215;-76
2023/03/11 12:57:17;;;;;;;1.42;1.23;;;;;;;;;;4980084;28;20171;-75
2023/03/11 12:59:48;;;;;;;2.78;0.90;;;;;;;;;;4988366;28;20214;-77
2023/03/11 13:02:32;;;;;;;2.65;0.60;;;;;;;;;;4983357;28;20203;-75
2023/03/11 13:05:04;;;;;;;1.35;0.93;;;;;;;;;;4988689;28;20227;-76
2023/03/11 13:07:35;;;;;;;5.82;0.93;;;;;;;;;;4991601;28;20184;-75
2023/03/11 13:10:03;;;;;;;3.53;0.77;;;;;;;;;;4983939;28;20196;-76
2023/03/11 13:12:43;;;;;;;5.57;1.08;;;;;;;;;;4989365;28;20262;-75
2023/03/11 13:15:17;;;;;;;1.65;0.60;;;;;;;;;;4985136;28;20202;-76
2023/03/11 13:17:54;;;;;;;2.67;0.70;;;;;;;;;;4989312;28;20243;-75
2023/03/11 13:20:37;;;;;;;2.20;0.70;;;;;;;;;;4990645;28;20197;-74
2023/03/11 13:23:22;;;;;;;3.95;1.08;;;;;;;;;;4983088;28;20203;-77
2023/03/11 13:25:48;;;;;;;2.20;0.85;;;;;;;;;;4979788;28;20246;-76
2023/03/11 13:28:28;;;;;;;2.75;1.00;;;;;;;;;;4990346;28;20172;-76
2023/03/11 13:30:54;;;;;;;1.63;0.88;;;;;;;;;;4987438;28;20184;-76
2023/03/11 13:33:19;;;;;;;3.63;0.80;;;;;;;;;;4990176;28;20207;-76
2023/03/11 13:35:59;;;;;;;2.23;0.90;;;;;;;;;;4987951;28;20187;-76
2023/03/11 13:38:33;;;;;;;1.58;0.90;;;;;;;;;;4988572;28;20266;-76
2023/03/11 13:41:00;;;;;;;1.77;0.50;;;;;;;;;;4989440;28;20195;-76
2023/03/11 13:43:25;;;;;;;2.43;0.70;;;;;;;;;;4990496;28;20579;-75
2023/03/11 13:45:58;;;;;;;1.85;0.60;;;;;;;;;;4989884;28;20189;-75
2023/03/11 13:48:32;;;;;;;1.63;0.73;;;;;;;;;;4982663;28;20172;-75
2023/03/11 13:50:57;;;;;;;2.13;0.88;;;;;;;;;;4985627;28;20197;-75
2023/03/11 13:53:27;;;;;;;4.85;1.73;;;;;;;;;;4987209;28;20208;-75
2023/03/11 13:55:52;;;;;;;1.15;0.60;;;;;;;;;;4984421;28;20564;-75
2023/03/11 13:58:22;;;;;;;2.35;0.40;;;;;;;;;;4985383;28;20276;-76
2023/03/11 14:01:10;;;;;;;1.83;0.52;;;;;;;;;;4988887;28;20183;-76
2023/03/11 14:03:39;;;;;;;1.83;0.60;;;;;;;;;;4981985;28;20233;-75
2023/03/11 14:06:06;;;;;;;4.00;0.77;;;;;;;;;;4988113;28;20180;-75
2023/03/11 14:08:33;;;;;;;1.70;0.60;;;;;;;;;;4987551;28;20701;-76
2023/03/11 14:11:10;;;;;;;2.08;0.60;;;;;;;;;;4992037;28;20187;-75
2023/03/11 14:13:40;;;;;;;4.00;0.82;;;;;;;;;;4987362;28;20545;-75
2023/03/11 14:16:20;;;;;;;1.52;0.80;;;;;;;;;;4982647;28;20184;-76
2023/03/11 14:19:11;;;;;;;3.05;0.75;;;;;;;;;;4982238;28;20646;-75
2023/03/11 14:21:40;;;;;;;4.43;1.45;;;;;;;;;;4984304;28;20175;-75
2023/03/11 14:24:05;;;;;;;3.30;0.70;;;;;;;;;;4986675;28;20383;-76
2023/03/11 14:26:33;;;;;;;3.13;0.88;;;;;;;;;;4989838;28;20187;-75
2023/03/11 14:29:01;;;;;;;2.15;0.80;;;;;;;;;;4992402;28;20190;-74
2023/03/11 14:31:33;;;;;;;2.20;0.80;;;;;;;;;;4992714;28;20177;-75
2023/03/11 14:34:05;;;;;;;2.15;0.73;;;;;;;;;;4992523;28;20219;-75
2023/03/11 14:36:38;;;;;;;2.10;0.57;;;;;;;;;;5005553;28;20183;-75
2023/03/11 14:39:03;;;;;;;2.17;0.80;;;;;;;;;;4992282;28;20191;-75
2023/03/11 14:41:28;;;;;;;4.05;0.90;;;;;;;;;;4992810;28;20195;-75
2023/03/11 14:43:54;;;;;;;2.88;0.73;;;;;;;;;;4996396;28;20207;-75
2023/03/11 14:46:21;;;;;;;2.90;0.93;;;;;;;;;;4990503;28;20186;-75